sensor_id;sensor_type;location;lat;lon;timestamp;temperature;humidity
46590;DHT22;32313;48.722;9.362;2024-02-28T00:02:01;6.20;99.90
46590;DHT22;32313;48.722;9.362;2024-02-28T00:04:26;6.20;99.90
46590;DHT22;32313;48.722;9.362;2024-02-28T00:06:58;6.20;99.90
46590;DHT22;32313;48.722;9.362;2024-02-28T00:09:24;6.20;99.90
46590;DHT22;32313;48.722;9.362;2024-02-28T00:11:49;6.20;99.90
46590;DHT22;32313;48.722;9.362;2024-02-28T00:14:15;6.20;99.90
46590;DHT22;32313;48.722;9.362;2024-02-28T00:16:42;6.20;99.90
46590;DHT22;32313;48.722;9.362;2024-02-28T00:19:08;6.20;99.90
46590;DHT22;32313;48.722;9.362;2024-02-28T00:21:34;6.20;99.90
46590;DHT22;32313;48.722;9.362;2024-02-28T00:23:59;6.20;99.90
46590;DHT22;32313;48.722;9.362;2024-02-28T00:26:25;6.20;99.90
46590;DHT22;32313;48.722;9.362;2024-02-28T00:28:51;6.20;99.90
46590;DHT22;32313;48.722;9.362;2024-02-28T00:31:17;6.20;99.90
46590;DHT22;32313;48.722;9.362;2024-02-28T00:33:42;6.20;99.90
46590;DHT22;32313;48.722;9.362;2024-02-28T00:36:08;6.20;99.90
46590;DHT22;32313;48.722;9.362;2024-02-28T00:38:33;6.20;99.90
46590;DHT22;32313;48.722;9.362;2024-02-28T00:40:59;6.20;99.90
46590;DHT22;32313;48.722;9.362;2024-02-28T00:43:25;6.20;99.90
46590;DHT22;32313;48.722;9.362;2024-02-28T00:45:51;6.20;99.90
46590;DHT22;32313;48.722;9.362;2024-02-28T00:48:16;6.20;99.90
46590;DHT22;32313;48.722;9.362;2024-02-28T00:50:42;6.20;99.90
46590;DHT22;32313;48.722;9.362;2024-02-28T00:53:07;6.20;99.90
46590;DHT22;32313;48.722;9.362;2024-02-28T00:55:33;6.20;99.90
46590;DHT22;32313;48.722;9.362;2024-02-28T00:57:59;6.20;99.90
46590;DHT22;32313;48.722;9.362;2024-02-28T01:00:25;6.20;99.90
46590;DHT22;32313;48.722;9.362;2024-02-28T01:02:50;6.20;99.90
46590;DHT22;32313;48.722;9.362;2024-02-28T01:05:16;6.20;99.90
46590;DHT22;32313;48.722;9.362;2024-02-28T01:07:42;6.20;99.90
46590;DHT22;32313;48.722;9.362;2024-02-28T01:10:07;6.20;99.90
46590;DHT22;32313;48.722;9.362;2024-02-28T01:12:33;6.20;99.90
46590;DHT22;32313;48.722;9.362;2024-02-28T01:15:00;6.30;99.90
46590;DHT22;32313;48.722;9.362;2024-02-28T01:17:25;6.20;99.90
46590;DHT22;32313;48.722;9.362;2024-02-28T01:19:51;6.30;99.90
46590;DHT22;32313;48.722;9.362;2024-02-28T01:22:16;6.30;99.90
46590;DHT22;32313;48.722;9.362;2024-02-28T01:24:42;6.20;99.90
46590;DHT22;32313;48.722;9.362;2024-02-28T01:27:08;6.20;99.90
46590;DHT22;32313;48.722;9.362;2024-02-28T01:29:33;6.20;99.90
46590;DHT22;32313;48.722;9.362;2024-02-28T01:31:59;6.20;99.90
46590;DHT22;32313;48.722;9.362;2024-02-28T01:34:25;6.20;99.90
46590;DHT22;32313;48.722;9.362;2024-02-28T01:36:50;6.20;99.90
46590;DHT22;32313;48.722;9.362;2024-02-28T01:39:16;6.20;99.90
46590;DHT22;32313;48.722;9.362;2024-02-28T01:41:53;6.20;99.90
46590;DHT22;32313;48.722;9.362;2024-02-28T01:44:20;6.30;99.90
46590;DHT22;32313;48.722;9.362;2024-02-28T01:46:46;6.20;99.90
46590;DHT22;32313;48.722;9.362;2024-02-28T01:49:13;6.30;99.90
46590;DHT22;32313;48.722;9.362;2024-02-28T01:51:40;6.30;99.90
46590;DHT22;32313;48.722;9.362;2024-02-28T01:54:06;6.30;99.90
46590;DHT22;32313;48.722;9.362;2024-02-28T01:56:32;6.30;99.90
46590;DHT22;32313;48.722;9.362;2024-02-28T01:58:58;6.30;99.90
46590;DHT22;32313;48.722;9.362;2024-02-28T02:01:25;6.30;99.90
46590;DHT22;32313;48.722;9.362;2024-02-28T02:03:53;6.30;99.90
46590;DHT22;32313;48.722;9.362;2024-02-28T02:06:19;6.30;99.90
46590;DHT22;32313;48.722;9.362;2024-02-28T02:08:44;6.30;99.90
46590;DHT22;32313;48.722;9.362;2024-02-28T02:11:11;6.30;99.90
46590;DHT22;32313;48.722;9.362;2024-02-28T02:13:50;6.30;99.90
46590;DHT22;32313;48.722;9.362;2024-02-28T02:16:16;6.40;99.90
46590;DHT22;32313;48.722;9.362;2024-02-28T02:18:42;6.30;99.90
46590;DHT22;32313;48.722;9.362;2024-02-28T02:21:08;6.30;99.90
46590;DHT22;32313;48.722;9.362;2024-02-28T02:23:35;6.30;99.90
46590;DHT22;32313;48.722;9.362;2024-02-28T02:26:04;6.30;99.90
46590;DHT22;32313;48.722;9.362;2024-02-28T02:28:30;6.30;99.90
46590;DHT22;32313;48.722;9.362;2024-02-28T02:31:02;6.30;99.90
46590;DHT22;32313;48.722;9.362;2024-02-28T02:33:28;6.30;99.90
46590;DHT22;32313;48.722;9.362;2024-02-28T02:35:53;6.30;99.90
46590;DHT22;32313;48.722;9.362;2024-02-28T02:38:19;6.30;99.90
46590;DHT22;32313;48.722;9.362;2024-02-28T02:40:49;6.30;99.90
46590;DHT22;32313;48.722;9.362;2024-02-28T02:43:15;6.20;99.90
46590;DHT22;32313;48.722;9.362;2024-02-28T02:45:41;6.20;99.90
46590;DHT22;32313;48.722;9.362;2024-02-28T02:48:06;6.20;99.90
46590;DHT22;32313;48.722;9.362;2024-02-28T02:50:32;6.20;99.90
46590;DHT22;32313;48.722;9.362;2024-02-28T02:52:58;6.20;99.90
46590;DHT22;32313;48.722;9.362;2024-02-28T02:55:23;6.20;99.90
46590;DHT22;32313;48.722;9.362;2024-02-28T02:57:49;6.20;99.90
46590;DHT22;32313;48.722;9.362;2024-02-28T03:00:15;6.20;99.90
46590;DHT22;32313;48.722;9.362;2024-02-28T03:02:40;6.20;99.90
46590;DHT22;32313;48.722;9.362;2024-02-28T03:05:07;6.20;99.90
46590;DHT22;32313;48.722;9.362;2024-02-28T03:07:33;6.20;99.90
46590;DHT22;32313;48.722;9.362;2024-02-28T03:09:58;6.20;99.90
46590;DHT22;32313;48.722;9.362;2024-02-28T03:12:24;6.20;99.90
46590;DHT22;32313;48.722;9.362;2024-02-28T03:14:50;6.20;99.90
46590;DHT22;32313;48.722;9.362;2024-02-28T03:17:16;6.20;99.90
46590;DHT22;32313;48.722;9.362;2024-02-28T03:19:42;6.20;99.90
46590;DHT22;32313;48.722;9.362;2024-02-28T03:22:08;6.20;99.90
46590;DHT22;32313;48.722;9.362;2024-02-28T03:24:33;6.20;99.90
46590;DHT22;32313;48.722;9.362;2024-02-28T03:27:03;6.20;99.90
46590;DHT22;32313;48.722;9.362;2024-02-28T03:29:29;6.20;99.90
46590;DHT22;32313;48.722;9.362;2024-02-28T03:31:54;6.20;99.90
46590;DHT22;32313;48.722;9.362;2024-02-28T03:34:21;6.20;99.90
46590;DHT22;32313;48.722;9.362;2024-02-28T03:36:46;6.20;99.90
46590;DHT22;32313;48.722;9.362;2024-02-28T03:39:12;6.20;99.90
46590;DHT22;32313;48.722;9.362;2024-02-28T03:41:38;6.20;99.90
46590;DHT22;32313;48.722;9.362;2024-02-28T03:44:04;6.10;99.90
46590;DHT22;32313;48.722;9.362;2024-02-28T03:46:30;6.10;99.90
46590;DHT22;32313;48.722;9.362;2024-02-28T03:48:56;6.20;99.90
46590;DHT22;32313;48.722;9.362;2024-02-28T03:51:22;6.20;99.90
46590;DHT22;32313;48.722;9.362;2024-02-28T03:53:48;6.10;99.90
46590;DHT22;32313;48.722;9.362;2024-02-28T03:56:21;6.20;99.90
46590;DHT22;32313;48.722;9.362;2024-02-28T03:58:46;6.10;99.90
46590;DHT22;32313;48.722;9.362;2024-02-28T04:01:12;6.10;99.90
46590;DHT22;32313;48.722;9.362;2024-02-28T04:03:38;6.10;99.90
46590;DHT22;32313;48.722;9.362;2024-02-28T04:06:04;6.10;99.90
46590;DHT22;32313;48.722;9.362;2024-02-28T04:08:30;6.10;99.90
46590;DHT22;32313;48.722;9.362;2024-02-28T04:10:55;6.10;99.90
46590;DHT22;32313;48.722;9.362;2024-02-28T04:13:21;6.10;99.90
46590;DHT22;32313;48.722;9.362;2024-02-28T04:15:47;6.10;99.90
46590;DHT22;32313;48.722;9.362;2024-02-28T04:18:13;6.10;99.90
46590;DHT22;32313;48.722;9.362;2024-02-28T04:20:38;6.10;99.90
46590;DHT22;32313;48.722;9.362;2024-02-28T04:23:04;6.10;99.90
46590;DHT22;32313;48.722;9.362;2024-02-28T04:25:30;6.10;99.90
46590;DHT22;32313;48.722;9.362;2024-02-28T04:27:55;6.10;99.90
46590;DHT22;32313;48.722;9.362;2024-02-28T04:30:22;6.10;99.90
46590;DHT22;32313;48.722;9.362;2024-02-28T04:32:48;6.10;99.90
46590;DHT22;32313;48.722;9.362;2024-02-28T04:35:15;6.10;99.90
46590;DHT22;32313;48.722;9.362;2024-02-28T04:37:44;6.10;99.90
46590;DHT22;32313;48.722;9.362;2024-02-28T04:40:11;6.10;99.90
46590;DHT22;32313;48.722;9.362;2024-02-28T04:42:36;6.10;99.90
46590;DHT22;32313;48.722;9.362;2024-02-28T04:45:03;6.10;99.90
46590;DHT22;32313;48.722;9.362;2024-02-28T04:47:29;6.10;99.90
46590;DHT22;32313;48.722;9.362;2024-02-28T04:49:56;6.10;99.90
46590;DHT22;32313;48.722;9.362;2024-02-28T04:52:22;6.00;99.90
46590;DHT22;32313;48.722;9.362;2024-02-28T04:54:48;6.10;99.90
46590;DHT22;32313;48.722;9.362;2024-02-28T04:57:14;6.10;99.90
46590;DHT22;32313;48.722;9.362;2024-02-28T04:59:41;6.10;99.90
46590;DHT22;32313;48.722;9.362;2024-02-28T05:02:07;6.10;99.90
46590;DHT22;32313;48.722;9.362;2024-02-28T05:04:33;6.10;99.90
46590;DHT22;32313;48.722;9.362;2024-02-28T05:06:58;6.10;99.90
46590;DHT22;32313;48.722;9.362;2024-02-28T05:09:24;6.10;99.90
46590;DHT22;32313;48.722;9.362;2024-02-28T05:11:51;6.00;99.90
46590;DHT22;32313;48.722;9.362;2024-02-28T05:14:16;6.00;99.90
46590;DHT22;32313;48.722;9.362;2024-02-28T05:16:42;6.00;99.90
46590;DHT22;32313;48.722;9.362;2024-02-28T05:19:08;6.00;99.90
46590;DHT22;32313;48.722;9.362;2024-02-28T05:21:41;6.00;99.90
46590;DHT22;32313;48.722;9.362;2024-02-28T05:24:07;6.00;99.90
46590;DHT22;32313;48.722;9.362;2024-02-28T05:26:35;6.00;99.90
46590;DHT22;32313;48.722;9.362;2024-02-28T05:29:01;6.00;99.90
46590;DHT22;32313;48.722;9.362;2024-02-28T05:31:27;6.00;99.90
46590;DHT22;32313;48.722;9.362;2024-02-28T05:33:55;6.00;99.90
46590;DHT22;32313;48.722;9.362;2024-02-28T05:36:25;6.00;99.90
46590;DHT22;32313;48.722;9.362;2024-02-28T05:38:52;6.00;99.90
46590;DHT22;32313;48.722;9.362;2024-02-28T05:41:19;6.00;99.90
46590;DHT22;32313;48.722;9.362;2024-02-28T05:43:44;5.90;99.90
46590;DHT22;32313;48.722;9.362;2024-02-28T05:46:11;5.90;99.90
46590;DHT22;32313;48.722;9.362;2024-02-28T05:48:37;5.90;99.90
46590;DHT22;32313;48.722;9.362;2024-02-28T05:51:03;5.90;99.90
46590;DHT22;32313;48.722;9.362;2024-02-28T05:53:29;5.90;99.90
46590;DHT22;32313;48.722;9.362;2024-02-28T05:56:01;5.90;99.90
46590;DHT22;32313;48.722;9.362;2024-02-28T05:58:26;5.90;99.90
46590;DHT22;32313;48.722;9.362;2024-02-28T06:00:52;5.80;99.90
46590;DHT22;32313;48.722;9.362;2024-02-28T06:03:18;5.80;99.90
46590;DHT22;32313;48.722;9.362;2024-02-28T06:05:44;5.80;99.90
46590;DHT22;32313;48.722;9.362;2024-02-28T06:08:09;5.80;99.90
46590;DHT22;32313;48.722;9.362;2024-02-28T06:10:35;5.80;99.90
46590;DHT22;32313;48.722;9.362;2024-02-28T06:13:02;5.80;99.90
46590;DHT22;32313;48.722;9.362;2024-02-28T06:15:28;5.80;99.90
46590;DHT22;32313;48.722;9.362;2024-02-28T06:17:57;5.80;99.90
46590;DHT22;32313;48.722;9.362;2024-02-28T06:20:22;5.80;99.90
46590;DHT22;32313;48.722;9.362;2024-02-28T06:22:48;5.80;99.90
46590;DHT22;32313;48.722;9.362;2024-02-28T06:25:14;5.80;99.90
46590;DHT22;32313;48.722;9.362;2024-02-28T06:27:45;5.80;99.90
46590;DHT22;32313;48.722;9.362;2024-02-28T06:30:11;5.80;99.90
46590;DHT22;32313;48.722;9.362;2024-02-28T06:32:40;5.80;99.90
46590;DHT22;32313;48.722;9.362;2024-02-28T06:35:06;5.80;99.90
46590;DHT22;32313;48.722;9.362;2024-02-28T06:37:33;5.80;99.90
46590;DHT22;32313;48.722;9.362;2024-02-28T06:39:59;5.70;99.90
46590;DHT22;32313;48.722;9.362;2024-02-28T06:42:24;5.70;99.90
46590;DHT22;32313;48.722;9.362;2024-02-28T06:44:50;5.70;99.90
46590;DHT22;32313;48.722;9.362;2024-02-28T06:47:16;5.70;99.90
46590;DHT22;32313;48.722;9.362;2024-02-28T06:49:43;5.70;99.90
46590;DHT22;32313;48.722;9.362;2024-02-28T06:52:09;5.80;99.90
46590;DHT22;32313;48.722;9.362;2024-02-28T06:54:35;5.80;99.90
46590;DHT22;32313;48.722;9.362;2024-02-28T06:57:00;5.80;99.90
46590;DHT22;32313;48.722;9.362;2024-02-28T06:59:27;5.70;99.90
46590;DHT22;32313;48.722;9.362;2024-02-28T07:01:53;5.70;99.90
46590;DHT22;32313;48.722;9.362;2024-02-28T07:04:19;5.70;99.90
46590;DHT22;32313;48.722;9.362;2024-02-28T07:06:44;5.70;99.90
46590;DHT22;32313;48.722;9.362;2024-02-28T07:09:11;5.80;99.90
46590;DHT22;32313;48.722;9.362;2024-02-28T07:11:38;5.80;99.90
46590;DHT22;32313;48.722;9.362;2024-02-28T07:14:04;5.80;99.90
46590;DHT22;32313;48.722;9.362;2024-02-28T07:16:30;5.70;99.90
46590;DHT22;32313;48.722;9.362;2024-02-28T07:18:58;5.80;99.90
46590;DHT22;32313;48.722;9.362;2024-02-28T07:21:23;5.80;99.90
46590;DHT22;32313;48.722;9.362;2024-02-28T07:23:49;5.80;99.90
46590;DHT22;32313;48.722;9.362;2024-02-28T07:26:15;5.90;99.90
46590;DHT22;32313;48.722;9.362;2024-02-28T07:32:29;5.90;99.90
46590;DHT22;32313;48.722;9.362;2024-02-28T07:35:00;5.90;99.90
46590;DHT22;32313;48.722;9.362;2024-02-28T07:37:26;5.90;99.90
46590;DHT22;32313;48.722;9.362;2024-02-28T07:39:52;6.00;99.90
46590;DHT22;32313;48.722;9.362;2024-02-28T07:42:17;6.00;99.90
46590;DHT22;32313;48.722;9.362;2024-02-28T07:44:43;6.00;99.90
46590;DHT22;32313;48.722;9.362;2024-02-28T07:47:09;6.10;99.90
46590;DHT22;32313;48.722;9.362;2024-02-28T07:49:34;6.10;99.90
46590;DHT22;32313;48.722;9.362;2024-02-28T07:52:00;6.20;99.90
46590;DHT22;32313;48.722;9.362;2024-02-28T08:48:32;6.60;99.90
46590;DHT22;32313;48.722;9.362;2024-02-28T08:50:58;6.60;99.90
46590;DHT22;32313;48.722;9.362;2024-02-28T08:53:24;6.70;99.90
46590;DHT22;32313;48.722;9.362;2024-02-28T08:55:50;6.70;99.90
46590;DHT22;32313;48.722;9.362;2024-02-28T08:58:15;6.70;99.90
46590;DHT22;32313;48.722;9.362;2024-02-28T09:00:41;6.70;99.90
46590;DHT22;32313;48.722;9.362;2024-02-28T09:03:06;6.80;99.90
46590;DHT22;32313;48.722;9.362;2024-02-28T09:05:32;6.80;99.90
46590;DHT22;32313;48.722;9.362;2024-02-28T09:07:58;6.90;99.90
46590;DHT22;32313;48.722;9.362;2024-02-28T09:10:24;7.00;99.90
46590;DHT22;32313;48.722;9.362;2024-02-28T09:12:53;7.10;99.90
46590;DHT22;32313;48.722;9.362;2024-02-28T09:15:19;7.10;99.90
46590;DHT22;32313;48.722;9.362;2024-02-28T09:17:45;7.20;99.90
46590;DHT22;32313;48.722;9.362;2024-02-28T09:20:11;7.20;99.90
46590;DHT22;32313;48.722;9.362;2024-02-28T09:22:37;7.30;99.90
46590;DHT22;32313;48.722;9.362;2024-02-28T09:25:03;7.20;99.90
46590;DHT22;32313;48.722;9.362;2024-02-28T09:27:30;7.20;99.90
46590;DHT22;32313;48.722;9.362;2024-02-28T09:29:56;7.30;99.90
46590;DHT22;32313;48.722;9.362;2024-02-28T09:32:21;7.30;99.90
46590;DHT22;32313;48.722;9.362;2024-02-28T09:34:47;7.20;99.90
46590;DHT22;32313;48.722;9.362;2024-02-28T09:37:14;7.20;99.90
46590;DHT22;32313;48.722;9.362;2024-02-28T09:39:40;7.20;99.90
46590;DHT22;32313;48.722;9.362;2024-02-28T09:42:06;7.20;99.90
46590;DHT22;32313;48.722;9.362;2024-02-28T09:44:34;7.20;99.90
46590;DHT22;32313;48.722;9.362;2024-02-28T09:47:01;7.10;99.90
46590;DHT22;32313;48.722;9.362;2024-02-28T09:49:27;7.20;99.90
46590;DHT22;32313;48.722;9.362;2024-02-28T09:51:54;7.20;99.90
46590;DHT22;32313;48.722;9.362;2024-02-28T09:54:22;7.30;99.90
46590;DHT22;32313;48.722;9.362;2024-02-28T09:56:51;7.40;99.90
46590;DHT22;32313;48.722;9.362;2024-02-28T09:59:18;7.40;99.90
46590;DHT22;32313;48.722;9.362;2024-02-28T10:01:48;7.40;99.90
46590;DHT22;32313;48.722;9.362;2024-02-28T10:04:15;7.40;99.90
46590;DHT22;32313;48.722;9.362;2024-02-28T10:06:41;7.40;99.90
46590;DHT22;32313;48.722;9.362;2024-02-28T10:09:07;7.50;99.90
46590;DHT22;32313;48.722;9.362;2024-02-28T10:11:33;7.60;99.90
46590;DHT22;32313;48.722;9.362;2024-02-28T10:14:01;7.70;99.90
46590;DHT22;32313;48.722;9.362;2024-02-28T10:16:27;7.80;99.90
46590;DHT22;32313;48.722;9.362;2024-02-28T10:18:53;7.90;99.90
46590;DHT22;32313;48.722;9.362;2024-02-28T10:21:19;8.10;99.90
46590;DHT22;32313;48.722;9.362;2024-02-28T10:23:45;8.10;99.90
46590;DHT22;32313;48.722;9.362;2024-02-28T10:26:11;8.10;99.90
46590;DHT22;32313;48.722;9.362;2024-02-28T10:28:37;8.20;99.90
46590;DHT22;32313;48.722;9.362;2024-02-28T10:31:04;8.30;99.90
46590;DHT22;32313;48.722;9.362;2024-02-28T10:33:32;8.40;99.90
46590;DHT22;32313;48.722;9.362;2024-02-28T10:35:59;8.60;99.90
46590;DHT22;32313;48.722;9.362;2024-02-28T10:38:26;8.70;99.90
46590;DHT22;32313;48.722;9.362;2024-02-28T10:40:53;8.70;99.90
46590;DHT22;32313;48.722;9.362;2024-02-28T10:43:20;8.70;99.90
46590;DHT22;32313;48.722;9.362;2024-02-28T10:45:48;8.70;99.90
46590;DHT22;32313;48.722;9.362;2024-02-28T10:48:15;8.80;99.90
46590;DHT22;32313;48.722;9.362;2024-02-28T10:50:47;8.70;99.90
46590;DHT22;32313;48.722;9.362;2024-02-28T10:53:14;8.80;99.90
46590;DHT22;32313;48.722;9.362;2024-02-28T10:55:41;8.70;99.90
46590;DHT22;32313;48.722;9.362;2024-02-28T10:58:08;8.70;99.90
46590;DHT22;32313;48.722;9.362;2024-02-28T11:00:36;8.60;99.90
46590;DHT22;32313;48.722;9.362;2024-02-28T11:03:04;8.60;99.90
46590;DHT22;32313;48.722;9.362;2024-02-28T11:05:37;8.50;99.90
46590;DHT22;32313;48.722;9.362;2024-02-28T11:08:09;8.40;99.90
46590;DHT22;32313;48.722;9.362;2024-02-28T11:10:35;8.30;99.90
46590;DHT22;32313;48.722;9.362;2024-02-28T11:13:01;8.30;99.90
46590;DHT22;32313;48.722;9.362;2024-02-28T11:15:26;8.30;99.90
46590;DHT22;32313;48.722;9.362;2024-02-28T11:18:06;8.30;99.90
46590;DHT22;32313;48.722;9.362;2024-02-28T11:20:33;8.30;99.90
46590;DHT22;32313;48.722;9.362;2024-02-28T11:23:00;8.30;99.90
46590;DHT22;32313;48.722;9.362;2024-02-28T11:25:25;8.20;99.90
46590;DHT22;32313;48.722;9.362;2024-02-28T11:27:52;8.10;99.90
46590;DHT22;32313;48.722;9.362;2024-02-28T11:30:18;8.10;99.90
46590;DHT22;32313;48.722;9.362;2024-02-28T11:32:43;8.10;99.90
46590;DHT22;32313;48.722;9.362;2024-02-28T11:35:10;8.10;99.90
46590;DHT22;32313;48.722;9.362;2024-02-28T11:37:38;8.00;99.90
46590;DHT22;32313;48.722;9.362;2024-02-28T11:40:08;7.90;99.90
46590;DHT22;32313;48.722;9.362;2024-02-28T11:42:38;7.90;99.90
46590;DHT22;32313;48.722;9.362;2024-02-28T11:45:05;7.90;99.90
46590;DHT22;32313;48.722;9.362;2024-02-28T11:47:35;7.90;99.90
46590;DHT22;32313;48.722;9.362;2024-02-28T11:50:01;7.90;99.90
46590;DHT22;32313;48.722;9.362;2024-02-28T11:52:30;7.90;99.90
46590;DHT22;32313;48.722;9.362;2024-02-28T11:54:56;8.00;99.90
46590;DHT22;32313;48.722;9.362;2024-02-28T11:57:22;8.00;99.90
46590;DHT22;32313;48.722;9.362;2024-02-28T11:59:48;8.00;99.90
46590;DHT22;32313;48.722;9.362;2024-02-28T12:02:15;7.90;99.90
46590;DHT22;32313;48.722;9.362;2024-02-28T12:04:42;7.90;99.90
46590;DHT22;32313;48.722;9.362;2024-02-28T12:07:11;7.80;99.90
46590;DHT22;32313;48.722;9.362;2024-02-28T12:09:37;7.80;99.90
46590;DHT22;32313;48.722;9.362;2024-02-28T12:12:06;7.80;99.90
46590;DHT22;32313;48.722;9.362;2024-02-28T12:14:35;7.70;99.90
46590;DHT22;32313;48.722;9.362;2024-02-28T12:17:01;7.70;99.90
46590;DHT22;32313;48.722;9.362;2024-02-28T12:19:28;7.80;99.90
46590;DHT22;32313;48.722;9.362;2024-02-28T12:21:54;7.80;99.90
46590;DHT22;32313;48.722;9.362;2024-02-28T12:24:20;7.80;99.90
46590;DHT22;32313;48.722;9.362;2024-02-28T12:26:46;7.80;99.90
46590;DHT22;32313;48.722;9.362;2024-02-28T12:29:12;7.90;99.90
46590;DHT22;32313;48.722;9.362;2024-02-28T12:31:38;7.90;99.90
46590;DHT22;32313;48.722;9.362;2024-02-28T12:34:04;7.90;99.90
46590;DHT22;32313;48.722;9.362;2024-02-28T12:36:30;7.90;99.90
46590;DHT22;32313;48.722;9.362;2024-02-28T12:38:58;8.00;99.90
46590;DHT22;32313;48.722;9.362;2024-02-28T12:41:26;8.00;99.90
46590;DHT22;32313;48.722;9.362;2024-02-28T12:43:52;8.00;99.90
46590;DHT22;32313;48.722;9.362;2024-02-28T12:46:17;8.00;99.90
46590;DHT22;32313;48.722;9.362;2024-02-28T12:48:43;8.00;99.90
46590;DHT22;32313;48.722;9.362;2024-02-28T12:51:13;8.00;99.90
46590;DHT22;32313;48.722;9.362;2024-02-28T12:53:45;7.90;99.90
46590;DHT22;32313;48.722;9.362;2024-02-28T12:56:11;7.90;99.90
46590;DHT22;32313;48.722;9.362;2024-02-28T12:58:37;8.00;99.90
46590;DHT22;32313;48.722;9.362;2024-02-28T13:01:03;8.00;99.90
46590;DHT22;32313;48.722;9.362;2024-02-28T13:03:30;8.00;99.90
46590;DHT22;32313;48.722;9.362;2024-02-28T13:05:56;8.10;99.90
46590;DHT22;32313;48.722;9.362;2024-02-28T13:08:21;8.10;99.90
46590;DHT22;32313;48.722;9.362;2024-02-28T13:10:47;8.10;99.90
46590;DHT22;32313;48.722;9.362;2024-02-28T13:13:13;8.10;99.90
46590;DHT22;32313;48.722;9.362;2024-02-28T13:15:40;8.10;99.90
46590;DHT22;32313;48.722;9.362;2024-02-28T13:18:06;8.00;99.90
46590;DHT22;32313;48.722;9.362;2024-02-28T13:20:35;8.00;99.90
46590;DHT22;32313;48.722;9.362;2024-02-28T13:23:00;8.00;99.90
46590;DHT22;32313;48.722;9.362;2024-02-28T13:25:26;8.00;99.90
46590;DHT22;32313;48.722;9.362;2024-02-28T13:27:52;7.90;99.90
46590;DHT22;32313;48.722;9.362;2024-02-28T13:30:17;7.90;99.90
46590;DHT22;32313;48.722;9.362;2024-02-28T13:32:43;7.80;99.90
46590;DHT22;32313;48.722;9.362;2024-02-28T13:35:09;7.80;99.90
46590;DHT22;32313;48.722;9.362;2024-02-28T13:37:35;7.70;99.90
46590;DHT22;32313;48.722;9.362;2024-02-28T13:40:02;7.70;99.90
46590;DHT22;32313;48.722;9.362;2024-02-28T13:42:30;7.70;99.90
46590;DHT22;32313;48.722;9.362;2024-02-28T13:44:55;7.70;99.90
46590;DHT22;32313;48.722;9.362;2024-02-28T13:47:21;7.80;99.90
46590;DHT22;32313;48.722;9.362;2024-02-28T13:49:47;7.80;99.90
46590;DHT22;32313;48.722;9.362;2024-02-28T13:52:13;7.80;99.90
46590;DHT22;32313;48.722;9.362;2024-02-28T13:54:38;7.80;99.90
46590;DHT22;32313;48.722;9.362;2024-02-28T13:57:04;7.80;99.90
46590;DHT22;32313;48.722;9.362;2024-02-28T13:59:30;7.80;99.90
46590;DHT22;32313;48.722;9.362;2024-02-28T14:01:57;7.80;99.90
46590;DHT22;32313;48.722;9.362;2024-02-28T14:04:24;7.80;99.90
46590;DHT22;32313;48.722;9.362;2024-02-28T14:06:49;7.80;99.90
46590;DHT22;32313;48.722;9.362;2024-02-28T14:09:15;7.80;99.90
46590;DHT22;32313;48.722;9.362;2024-02-28T14:11:41;7.70;99.90
46590;DHT22;32313;48.722;9.362;2024-02-28T14:14:07;7.60;99.90
46590;DHT22;32313;48.722;9.362;2024-02-28T14:16:33;7.60;99.90
46590;DHT22;32313;48.722;9.362;2024-02-28T14:18:59;7.60;99.90
46590;DHT22;32313;48.722;9.362;2024-02-28T14:21:25;7.60;99.90
46590;DHT22;32313;48.722;9.362;2024-02-28T14:23:51;7.70;99.90
46590;DHT22;32313;48.722;9.362;2024-02-28T14:26:17;7.70;99.90
46590;DHT22;32313;48.722;9.362;2024-02-28T14:28:43;7.80;99.90
46590;DHT22;32313;48.722;9.362;2024-02-28T14:31:09;7.80;99.90
46590;DHT22;32313;48.722;9.362;2024-02-28T14:33:35;7.80;99.90
46590;DHT22;32313;48.722;9.362;2024-02-28T14:36:02;7.80;99.90
46590;DHT22;32313;48.722;9.362;2024-02-28T14:38:31;7.80;99.90
46590;DHT22;32313;48.722;9.362;2024-02-28T14:40:56;7.80;99.90
46590;DHT22;32313;48.722;9.362;2024-02-28T14:43:22;7.80;99.90
46590;DHT22;32313;48.722;9.362;2024-02-28T14:45:48;7.70;99.90
46590;DHT22;32313;48.722;9.362;2024-02-28T14:48:13;7.60;99.90
46590;DHT22;32313;48.722;9.362;2024-02-28T14:50:39;7.60;99.90
46590;DHT22;32313;48.722;9.362;2024-02-28T14:53:05;7.50;99.90
46590;DHT22;32313;48.722;9.362;2024-02-28T14:55:31;7.40;99.90
46590;DHT22;32313;48.722;9.362;2024-02-28T14:57:56;7.30;99.90
46590;DHT22;32313;48.722;9.362;2024-02-28T15:00:22;7.30;99.90
46590;DHT22;32313;48.722;9.362;2024-02-28T15:02:48;7.30;99.90
46590;DHT22;32313;48.722;9.362;2024-02-28T15:05:15;7.30;99.90
46590;DHT22;32313;48.722;9.362;2024-02-28T15:07:41;7.30;99.90
46590;DHT22;32313;48.722;9.362;2024-02-28T15:10:07;7.30;99.90
46590;DHT22;32313;48.722;9.362;2024-02-28T15:12:33;7.20;99.90
46590;DHT22;32313;48.722;9.362;2024-02-28T15:15:03;7.10;99.90
46590;DHT22;32313;48.722;9.362;2024-02-28T15:17:30;7.10;99.90
46590;DHT22;32313;48.722;9.362;2024-02-28T15:19:55;7.00;99.90
46590;DHT22;32313;48.722;9.362;2024-02-28T15:22:21;7.00;99.90
46590;DHT22;32313;48.722;9.362;2024-02-28T15:24:48;7.00;99.90
46590;DHT22;32313;48.722;9.362;2024-02-28T15:27:13;7.00;99.90
46590;DHT22;32313;48.722;9.362;2024-02-28T15:29:39;7.00;99.90
46590;DHT22;32313;48.722;9.362;2024-02-28T15:32:06;7.10;99.90
46590;DHT22;32313;48.722;9.362;2024-02-28T15:34:32;7.10;99.90
46590;DHT22;32313;48.722;9.362;2024-02-28T15:36:57;7.00;99.90
46590;DHT22;32313;48.722;9.362;2024-02-28T15:39:24;7.10;99.90
46590;DHT22;32313;48.722;9.362;2024-02-28T15:41:50;7.00;99.90
46590;DHT22;32313;48.722;9.362;2024-02-28T15:44:36;7.00;99.90
46590;DHT22;32313;48.722;9.362;2024-02-28T15:47:02;7.00;99.90
46590;DHT22;32313;48.722;9.362;2024-02-28T15:49:28;6.90;99.90
46590;DHT22;32313;48.722;9.362;2024-02-28T15:51:53;6.90;99.90
46590;DHT22;32313;48.722;9.362;2024-02-28T15:54:19;6.90;99.90
46590;DHT22;32313;48.722;9.362;2024-02-28T15:56:45;6.90;99.90
46590;DHT22;32313;48.722;9.362;2024-02-28T15:59:11;6.90;99.90
46590;DHT22;32313;48.722;9.362;2024-02-28T16:01:39;6.90;99.90
46590;DHT22;32313;48.722;9.362;2024-02-28T16:04:05;6.90;99.90
46590;DHT22;32313;48.722;9.362;2024-02-28T16:06:30;6.90;99.90
46590;DHT22;32313;48.722;9.362;2024-02-28T16:08:56;6.80;99.90
46590;DHT22;32313;48.722;9.362;2024-02-28T16:11:22;6.80;99.90
46590;DHT22;32313;48.722;9.362;2024-02-28T16:13:48;6.80;99.90
46590;DHT22;32313;48.722;9.362;2024-02-28T16:16:14;6.80;99.90
46590;DHT22;32313;48.722;9.362;2024-02-28T16:18:40;6.70;99.90
46590;DHT22;32313;48.722;9.362;2024-02-28T16:21:08;6.70;99.90
46590;DHT22;32313;48.722;9.362;2024-02-28T16:23:34;6.70;99.90
46590;DHT22;32313;48.722;9.362;2024-02-28T16:26:00;6.70;99.90
46590;DHT22;32313;48.722;9.362;2024-02-28T16:28:25;6.60;99.90
46590;DHT22;32313;48.722;9.362;2024-02-28T16:30:53;6.60;99.90
46590;DHT22;32313;48.722;9.362;2024-02-28T16:33:20;6.60;99.90
46590;DHT22;32313;48.722;9.362;2024-02-28T16:35:46;6.60;99.90
46590;DHT22;32313;48.722;9.362;2024-02-28T16:38:12;6.60;99.90